Terminal Aerodrome Forecast
Issued by NWS Quad Cities IA IL

Home | Current Version | Previous Version | Text Only | Print | Product List | Glossary On
Versions: 1 2 3 4 5 6 7 8 9 10 11 12 13 14 15 16 17 18 19 20 21
517
FTUS43 KDVN 211720
TAFMLI
TAF
KMLI 211720Z 2118/2218 VRB04KT P6SM SCT200
     FM220000 20003KT 6SM BR SKC
     FM221500 22009KT P6SM SKC=

USA.gov is the U.S. government's official web portal to all federal, state and local government web resources and services.